sensor_id;sensor_type;location;lat;lon;timestamp;temperature;humidity
18541;DHT22;9400;50.924;5.328;2022-10-17T00:00:04;14.90;99.90
18541;DHT22;9400;50.924;5.328;2022-10-17T00:02:32;14.90;99.90
18541;DHT22;9400;50.924;5.328;2022-10-17T00:05:00;14.90;99.90
18541;DHT22;9400;50.924;5.328;2022-10-17T00:07:27;14.90;99.90
18541;DHT22;9400;50.924;5.328;2022-10-17T00:09:56;14.90;99.90
18541;DHT22;9400;50.924;5.328;2022-10-17T00:12:25;14.90;99.90
18541;DHT22;9400;50.924;5.328;2022-10-17T00:14:53;15.00;99.90
18541;DHT22;9400;50.924;5.328;2022-10-17T00:17:21;14.90;99.90
18541;DHT22;9400;50.924;5.328;2022-10-17T00:19:48;14.90;99.90
18541;DHT22;9400;50.924;5.328;2022-10-17T00:22:16;14.90;99.90
18541;DHT22;9400;50.924;5.328;2022-10-17T00:24:44;14.90;99.90
18541;DHT22;9400;50.924;5.328;2022-10-17T00:27:11;14.90;99.90
18541;DHT22;9400;50.924;5.328;2022-10-17T00:29:40;15.00;99.90
18541;DHT22;9400;50.924;5.328;2022-10-17T00:32:08;15.00;99.90
18541;DHT22;9400;50.924;5.328;2022-10-17T00:34:35;15.00;99.90
18541;DHT22;9400;50.924;5.328;2022-10-17T00:37:03;15.00;99.90
18541;DHT22;9400;50.924;5.328;2022-10-17T00:39:30;15.00;99.90
18541;DHT22;9400;50.924;5.328;2022-10-17T00:41:57;15.10;99.90
18541;DHT22;9400;50.924;5.328;2022-10-17T00:44:59;15.20;99.90
18541;DHT22;9400;50.924;5.328;2022-10-17T00:47:27;15.20;99.90
18541;DHT22;9400;50.924;5.328;2022-10-17T00:49:55;15.30;99.90
18541;DHT22;9400;50.924;5.328;2022-10-17T00:52:25;15.40;99.90
18541;DHT22;9400;50.924;5.328;2022-10-17T00:54:56;15.50;99.90
18541;DHT22;9400;50.924;5.328;2022-10-17T00:57:25;15.60;99.90
18541;DHT22;9400;50.924;5.328;2022-10-17T00:59:55;15.70;99.90
18541;DHT22;9400;50.924;5.328;2022-10-17T01:02:25;15.80;99.90
18541;DHT22;9400;50.924;5.328;2022-10-17T01:04:54;15.90;99.90
18541;DHT22;9400;50.924;5.328;2022-10-17T01:07:25;16.10;99.90
18541;DHT22;9400;50.924;5.328;2022-10-17T01:09:54;16.20;99.90
18541;DHT22;9400;50.924;5.328;2022-10-17T01:12:29;16.30;99.90
18541;DHT22;9400;50.924;5.328;2022-10-17T01:15:11;16.40;99.90
18541;DHT22;9400;50.924;5.328;2022-10-17T01:17:54;16.50;99.90
18541;DHT22;9400;50.924;5.328;2022-10-17T01:20:52;16.50;99.90
18541;DHT22;9400;50.924;5.328;2022-10-17T01:23:47;16.60;99.90
18541;DHT22;9400;50.924;5.328;2022-10-17T01:26:24;16.70;99.90
18541;DHT22;9400;50.924;5.328;2022-10-17T01:29:19;16.70;99.90
18541;DHT22;9400;50.924;5.328;2022-10-17T01:31:59;16.80;99.90
18541;DHT22;9400;50.924;5.328;2022-10-17T01:34:32;16.80;99.90
18541;DHT22;9400;50.924;5.328;2022-10-17T01:37:05;16.90;99.90
18541;DHT22;9400;50.924;5.328;2022-10-17T01:39:40;16.90;99.90
18541;DHT22;9400;50.924;5.328;2022-10-17T01:42:13;16.90;99.90
18541;DHT22;9400;50.924;5.328;2022-10-17T01:44:47;16.90;99.90
18541;DHT22;9400;50.924;5.328;2022-10-17T01:47:22;17.00;99.90
18541;DHT22;9400;50.924;5.328;2022-10-17T01:49:53;16.90;99.90
18541;DHT22;9400;50.924;5.328;2022-10-17T01:52:25;17.00;99.90
18541;DHT22;9400;50.924;5.328;2022-10-17T01:54:55;17.00;99.90
18541;DHT22;9400;50.924;5.328;2022-10-17T01:57:28;17.00;99.90
18541;DHT22;9400;50.924;5.328;2022-10-17T01:59:57;17.00;99.90
18541;DHT22;9400;50.924;5.328;2022-10-17T02:02:27;17.00;99.90
18541;DHT22;9400;50.924;5.328;2022-10-17T02:04:56;17.00;99.90
18541;DHT22;9400;50.924;5.328;2022-10-17T02:07:23;17.00;99.90
18541;DHT22;9400;50.924;5.328;2022-10-17T02:09:51;17.00;99.90
18541;DHT22;9400;50.924;5.328;2022-10-17T02:12:32;16.90;99.90
18541;DHT22;9400;50.924;5.328;2022-10-17T02:15:29;16.90;99.90
18541;DHT22;9400;50.924;5.328;2022-10-17T02:18:14;16.90;99.90
18541;DHT22;9400;50.924;5.328;2022-10-17T02:20:49;17.00;99.90
18541;DHT22;9400;50.924;5.328;2022-10-17T02:23:22;17.00;99.90
18541;DHT22;9400;50.924;5.328;2022-10-17T02:26:00;17.00;99.90
18541;DHT22;9400;50.924;5.328;2022-10-17T02:28:38;17.00;99.90
18541;DHT22;9400;50.924;5.328;2022-10-17T02:31:13;17.00;99.90
18541;DHT22;9400;50.924;5.328;2022-10-17T02:33:45;16.90;99.90
18541;DHT22;9400;50.924;5.328;2022-10-17T02:36:20;16.90;99.90
18541;DHT22;9400;50.924;5.328;2022-10-17T02:38:49;16.90;99.90
18541;DHT22;9400;50.924;5.328;2022-10-17T02:41:18;16.90;99.90
18541;DHT22;9400;50.924;5.328;2022-10-17T02:43:47;16.90;99.90
18541;DHT22;9400;50.924;5.328;2022-10-17T02:46:18;16.90;99.90
18541;DHT22;9400;50.924;5.328;2022-10-17T02:48:50;17.00;99.90
18541;DHT22;9400;50.924;5.328;2022-10-17T02:51:25;17.00;99.90
18541;DHT22;9400;50.924;5.328;2022-10-17T02:54:02;17.00;99.90
18541;DHT22;9400;50.924;5.328;2022-10-17T02:56:36;17.00;99.90
18541;DHT22;9400;50.924;5.328;2022-10-17T02:59:05;17.00;99.90
18541;DHT22;9400;50.924;5.328;2022-10-17T03:01:34;17.00;99.90
18541;DHT22;9400;50.924;5.328;2022-10-17T03:04:08;17.00;99.90
18541;DHT22;9400;50.924;5.328;2022-10-17T03:06:38;17.00;99.90
18541;DHT22;9400;50.924;5.328;2022-10-17T03:09:06;17.00;99.90
18541;DHT22;9400;50.924;5.328;2022-10-17T03:11:34;17.00;99.90
18541;DHT22;9400;50.924;5.328;2022-10-17T03:14:02;17.00;99.90
18541;DHT22;9400;50.924;5.328;2022-10-17T03:16:29;17.00;99.90
18541;DHT22;9400;50.924;5.328;2022-10-17T03:18:56;17.00;99.90
18541;DHT22;9400;50.924;5.328;2022-10-17T03:21:25;17.00;99.90
18541;DHT22;9400;50.924;5.328;2022-10-17T03:23:53;17.00;99.90
18541;DHT22;9400;50.924;5.328;2022-10-17T03:26:21;17.00;99.90
18541;DHT22;9400;50.924;5.328;2022-10-17T03:28:48;17.00;99.90
18541;DHT22;9400;50.924;5.328;2022-10-17T03:31:16;17.10;99.90
18541;DHT22;9400;50.924;5.328;2022-10-17T03:33:44;17.10;99.90
18541;DHT22;9400;50.924;5.328;2022-10-17T03:36:14;17.10;99.90
18541;DHT22;9400;50.924;5.328;2022-10-17T03:38:43;17.10;99.90
18541;DHT22;9400;50.924;5.328;2022-10-17T03:41:11;17.10;99.90
18541;DHT22;9400;50.924;5.328;2022-10-17T03:43:39;17.10;99.90
18541;DHT22;9400;50.924;5.328;2022-10-17T03:46:07;17.10;99.90
18541;DHT22;9400;50.924;5.328;2022-10-17T03:48:35;17.10;99.90
18541;DHT22;9400;50.924;5.328;2022-10-17T03:51:04;17.10;99.90
18541;DHT22;9400;50.924;5.328;2022-10-17T03:53:32;17.10;99.90
18541;DHT22;9400;50.924;5.328;2022-10-17T03:56:10;17.10;99.90
18541;DHT22;9400;50.924;5.328;2022-10-17T03:58:38;17.10;99.90
18541;DHT22;9400;50.924;5.328;2022-10-17T04:01:07;17.20;99.90
18541;DHT22;9400;50.924;5.328;2022-10-17T04:03:35;17.20;99.90
18541;DHT22;9400;50.924;5.328;2022-10-17T04:06:03;17.20;99.90
18541;DHT22;9400;50.924;5.328;2022-10-17T04:08:31;17.20;99.90
18541;DHT22;9400;50.924;5.328;2022-10-17T04:10:58;17.30;99.90
18541;DHT22;9400;50.924;5.328;2022-10-17T04:13:28;17.30;99.90
18541;DHT22;9400;50.924;5.328;2022-10-17T04:15:56;17.30;99.90
18541;DHT22;9400;50.924;5.328;2022-10-17T04:18:24;17.30;99.90
18541;DHT22;9400;50.924;5.328;2022-10-17T04:20:52;17.30;99.90
18541;DHT22;9400;50.924;5.328;2022-10-17T04:23:19;17.30;99.90
18541;DHT22;9400;50.924;5.328;2022-10-17T04:25:47;17.30;99.90
18541;DHT22;9400;50.924;5.328;2022-10-17T04:28:15;17.30;99.90
18541;DHT22;9400;50.924;5.328;2022-10-17T04:30:44;17.20;99.90
18541;DHT22;9400;50.924;5.328;2022-10-17T04:33:11;17.20;99.90
18541;DHT22;9400;50.924;5.328;2022-10-17T04:35:39;17.30;99.90
18541;DHT22;9400;50.924;5.328;2022-10-17T04:38:06;17.20;99.90
18541;DHT22;9400;50.924;5.328;2022-10-17T04:40:35;17.20;99.90
18541;DHT22;9400;50.924;5.328;2022-10-17T04:43:02;17.20;99.90
18541;DHT22;9400;50.924;5.328;2022-10-17T04:45:30;17.20;99.90
18541;DHT22;9400;50.924;5.328;2022-10-17T04:47:59;17.20;99.90
18541;DHT22;9400;50.924;5.328;2022-10-17T04:50:26;17.20;99.90
18541;DHT22;9400;50.924;5.328;2022-10-17T04:52:54;17.20;99.90
18541;DHT22;9400;50.924;5.328;2022-10-17T04:55:21;17.20;99.90
18541;DHT22;9400;50.924;5.328;2022-10-17T04:57:49;17.20;99.90
18541;DHT22;9400;50.924;5.328;2022-10-17T05:00:17;17.30;99.90
18541;DHT22;9400;50.924;5.328;2022-10-17T05:02:44;17.20;99.90
18541;DHT22;9400;50.924;5.328;2022-10-17T05:05:14;17.20;99.90
18541;DHT22;9400;50.924;5.328;2022-10-17T05:07:41;17.20;99.90
18541;DHT22;9400;50.924;5.328;2022-10-17T05:10:09;17.20;99.90
18541;DHT22;9400;50.924;5.328;2022-10-17T05:12:37;17.20;99.90
18541;DHT22;9400;50.924;5.328;2022-10-17T05:15:05;17.20;99.90
18541;DHT22;9400;50.924;5.328;2022-10-17T05:17:33;17.20;99.90
18541;DHT22;9400;50.924;5.328;2022-10-17T05:20:01;17.20;99.90
18541;DHT22;9400;50.924;5.328;2022-10-17T05:22:30;17.30;99.90
18541;DHT22;9400;50.924;5.328;2022-10-17T05:24:58;17.30;99.90
18541;DHT22;9400;50.924;5.328;2022-10-17T05:27:25;17.40;99.90
18541;DHT22;9400;50.924;5.328;2022-10-17T05:29:53;17.40;99.90
18541;DHT22;9400;50.924;5.328;2022-10-17T05:32:21;17.40;99.90
18541;DHT22;9400;50.924;5.328;2022-10-17T05:34:48;17.40;99.90
18541;DHT22;9400;50.924;5.328;2022-10-17T05:37:16;17.40;99.90
18541;DHT22;9400;50.924;5.328;2022-10-17T05:39:45;17.40;99.90
18541;DHT22;9400;50.924;5.328;2022-10-17T05:42:13;17.40;99.90
18541;DHT22;9400;50.924;5.328;2022-10-17T05:44:40;17.40;99.90
18541;DHT22;9400;50.924;5.328;2022-10-17T05:47:08;17.40;99.90
18541;DHT22;9400;50.924;5.328;2022-10-17T05:49:35;17.50;99.90
18541;DHT22;9400;50.924;5.328;2022-10-17T05:52:03;17.40;99.90
18541;DHT22;9400;50.924;5.328;2022-10-17T05:54:31;17.40;99.90
18541;DHT22;9400;50.924;5.328;2022-10-17T05:57:00;17.40;99.90
18541;DHT22;9400;50.924;5.328;2022-10-17T05:59:28;17.40;99.90
18541;DHT22;9400;50.924;5.328;2022-10-17T06:01:55;17.40;99.90
18541;DHT22;9400;50.924;5.328;2022-10-17T06:04:23;17.40;99.90
18541;DHT22;9400;50.924;5.328;2022-10-17T06:06:53;17.40;99.90
18541;DHT22;9400;50.924;5.328;2022-10-17T06:09:21;17.40;99.90
18541;DHT22;9400;50.924;5.328;2022-10-17T06:11:49;17.50;99.90
18541;DHT22;9400;50.924;5.328;2022-10-17T06:14:20;17.40;99.90
18541;DHT22;9400;50.924;5.328;2022-10-17T06:16:48;17.40;99.90
18541;DHT22;9400;50.924;5.328;2022-10-17T06:19:16;17.50;99.90
18541;DHT22;9400;50.924;5.328;2022-10-17T06:21:43;17.40;99.90
18541;DHT22;9400;50.924;5.328;2022-10-17T06:24:11;17.50;99.90
18541;DHT22;9400;50.924;5.328;2022-10-17T06:26:39;17.40;99.90
18541;DHT22;9400;50.924;5.328;2022-10-17T06:29:06;17.50;99.90
18541;DHT22;9400;50.924;5.328;2022-10-17T06:31:35;17.50;99.90
18541;DHT22;9400;50.924;5.328;2022-10-17T06:34:03;17.50;99.90
18541;DHT22;9400;50.924;5.328;2022-10-17T06:36:33;17.60;99.90
18541;DHT22;9400;50.924;5.328;2022-10-17T06:39:01;17.60;99.90
18541;DHT22;9400;50.924;5.328;2022-10-17T06:41:28;17.70;99.90
18541;DHT22;9400;50.924;5.328;2022-10-17T06:43:55;17.70;99.90
18541;DHT22;9400;50.924;5.328;2022-10-17T06:46:23;17.70;99.90
18541;DHT22;9400;50.924;5.328;2022-10-17T06:48:56;17.70;99.90
18541;DHT22;9400;50.924;5.328;2022-10-17T06:51:24;17.70;99.90
18541;DHT22;9400;50.924;5.328;2022-10-17T06:53:51;17.70;99.90
18541;DHT22;9400;50.924;5.328;2022-10-17T06:56:19;17.70;99.90
18541;DHT22;9400;50.924;5.328;2022-10-17T06:58:46;17.80;99.90
18541;DHT22;9400;50.924;5.328;2022-10-17T07:01:16;17.80;99.90
18541;DHT22;9400;50.924;5.328;2022-10-17T07:03:47;17.80;99.90
18541;DHT22;9400;50.924;5.328;2022-10-17T07:06:17;17.90;99.90
18541;DHT22;9400;50.924;5.328;2022-10-17T07:08:45;17.90;99.90
18541;DHT22;9400;50.924;5.328;2022-10-17T07:11:14;18.00;99.90
18541;DHT22;9400;50.924;5.328;2022-10-17T07:13:42;18.00;99.90
18541;DHT22;9400;50.924;5.328;2022-10-17T07:16:10;18.10;99.90
18541;DHT22;9400;50.924;5.328;2022-10-17T07:18:38;18.10;99.90
18541;DHT22;9400;50.924;5.328;2022-10-17T07:21:06;18.20;99.90
18541;DHT22;9400;50.924;5.328;2022-10-17T07:23:35;18.30;99.90
18541;DHT22;9400;50.924;5.328;2022-10-17T07:26:07;18.30;99.90
18541;DHT22;9400;50.924;5.328;2022-10-17T07:28:35;18.40;99.90
18541;DHT22;9400;50.924;5.328;2022-10-17T07:31:04;18.40;99.90
18541;DHT22;9400;50.924;5.328;2022-10-17T07:33:32;18.50;99.90
18541;DHT22;9400;50.924;5.328;2022-10-17T07:36:01;18.50;99.90
18541;DHT22;9400;50.924;5.328;2022-10-17T07:38:29;18.50;99.90
18541;DHT22;9400;50.924;5.328;2022-10-17T07:41:00;18.50;99.90
18541;DHT22;9400;50.924;5.328;2022-10-17T07:43:28;18.60;99.90
18541;DHT22;9400;50.924;5.328;2022-10-17T07:45:56;18.60;99.90
18541;DHT22;9400;50.924;5.328;2022-10-17T07:48:24;18.50;99.90
18541;DHT22;9400;50.924;5.328;2022-10-17T07:50:52;18.50;99.90
18541;DHT22;9400;50.924;5.328;2022-10-17T07:53:20;18.50;99.90
18541;DHT22;9400;50.924;5.328;2022-10-17T07:55:48;18.50;99.90
18541;DHT22;9400;50.924;5.328;2022-10-17T07:58:18;18.50;99.90
18541;DHT22;9400;50.924;5.328;2022-10-17T08:00:45;18.60;99.90
18541;DHT22;9400;50.924;5.328;2022-10-17T08:03:17;18.60;99.90
18541;DHT22;9400;50.924;5.328;2022-10-17T08:05:45;18.60;99.90
18541;DHT22;9400;50.924;5.328;2022-10-17T08:08:13;18.60;99.90
18541;DHT22;9400;50.924;5.328;2022-10-17T08:10:41;18.60;99.90
18541;DHT22;9400;50.924;5.328;2022-10-17T08:13:09;18.50;99.90
18541;DHT22;9400;50.924;5.328;2022-10-17T08:15:38;18.50;99.90
18541;DHT22;9400;50.924;5.328;2022-10-17T08:18:06;18.50;99.90
18541;DHT22;9400;50.924;5.328;2022-10-17T08:20:33;18.60;99.90
18541;DHT22;9400;50.924;5.328;2022-10-17T08:23:01;18.60;99.90
18541;DHT22;9400;50.924;5.328;2022-10-17T08:25:28;18.70;99.90
18541;DHT22;9400;50.924;5.328;2022-10-17T08:27:57;18.80;99.90
18541;DHT22;9400;50.924;5.328;2022-10-17T08:30:25;18.90;99.90
18541;DHT22;9400;50.924;5.328;2022-10-17T08:32:53;19.00;99.90
18541;DHT22;9400;50.924;5.328;2022-10-17T08:35:21;19.10;99.90
18541;DHT22;9400;50.924;5.328;2022-10-17T08:37:48;19.20;99.90
18541;DHT22;9400;50.924;5.328;2022-10-17T08:40:20;19.20;99.90
18541;DHT22;9400;50.924;5.328;2022-10-17T08:43:08;19.10;99.90
18541;DHT22;9400;50.924;5.328;2022-10-17T08:45:40;19.10;99.90
18541;DHT22;9400;50.924;5.328;2022-10-17T08:48:13;19.10;99.90
18541;DHT22;9400;50.924;5.328;2022-10-17T08:50:45;19.00;99.90
18541;DHT22;9400;50.924;5.328;2022-10-17T08:53:19;19.00;99.90
18541;DHT22;9400;50.924;5.328;2022-10-17T08:55:50;18.90;99.90
18541;DHT22;9400;50.924;5.328;2022-10-17T08:58:21;18.90;99.90
18541;DHT22;9400;50.924;5.328;2022-10-17T09:00:57;18.80;99.90
18541;DHT22;9400;50.924;5.328;2022-10-17T09:03:39;18.90;99.90
18541;DHT22;9400;50.924;5.328;2022-10-17T09:06:17;18.90;99.90
18541;DHT22;9400;50.924;5.328;2022-10-17T09:08:55;19.00;99.90
18541;DHT22;9400;50.924;5.328;2022-10-17T09:11:41;19.00;99.90
18541;DHT22;9400;50.924;5.328;2022-10-17T09:14:36;19.10;99.90
18541;DHT22;9400;50.924;5.328;2022-10-17T09:17:19;19.10;99.90
18541;DHT22;9400;50.924;5.328;2022-10-17T09:19:56;19.10;99.90
18541;DHT22;9400;50.924;5.328;2022-10-17T09:22:32;19.10;99.90
18541;DHT22;9400;50.924;5.328;2022-10-17T09:25:03;19.10;99.90
18541;DHT22;9400;50.924;5.328;2022-10-17T09:27:35;19.10;99.90
18541;DHT22;9400;50.924;5.328;2022-10-17T09:30:32;19.10;99.90
18541;DHT22;9400;50.924;5.328;2022-10-17T09:33:13;19.00;99.90
18541;DHT22;9400;50.924;5.328;2022-10-17T09:35:43;19.00;99.90
18541;DHT22;9400;50.924;5.328;2022-10-17T09:38:16;18.90;99.90
18541;DHT22;9400;50.924;5.328;2022-10-17T09:40:51;18.90;99.90
18541;DHT22;9400;50.924;5.328;2022-10-17T09:43:21;18.90;99.90
18541;DHT22;9400;50.924;5.328;2022-10-17T09:46:00;18.90;99.90
18541;DHT22;9400;50.924;5.328;2022-10-17T09:48:34;18.80;99.90
18541;DHT22;9400;50.924;5.328;2022-10-17T09:51:07;18.90;99.90
18541;DHT22;9400;50.924;5.328;2022-10-17T09:53:37;18.90;99.90
18541;DHT22;9400;50.924;5.328;2022-10-17T09:56:09;18.90;99.90
18541;DHT22;9400;50.924;5.328;2022-10-17T09:58:41;18.90;99.90
18541;DHT22;9400;50.924;5.328;2022-10-17T10:01:17;18.80;99.90
18541;DHT22;9400;50.924;5.328;2022-10-17T10:03:45;18.70;99.90
18541;DHT22;9400;50.924;5.328;2022-10-17T10:06:15;18.70;99.90
18541;DHT22;9400;50.924;5.328;2022-10-17T10:08:54;18.80;99.90
18541;DHT22;9400;50.924;5.328;2022-10-17T10:11:25;18.80;99.90
18541;DHT22;9400;50.924;5.328;2022-10-17T10:14:14;18.80;99.90
18541;DHT22;9400;50.924;5.328;2022-10-17T10:16:47;18.90;99.90
18541;DHT22;9400;50.924;5.328;2022-10-17T10:19:28;18.90;99.90
18541;DHT22;9400;50.924;5.328;2022-10-17T10:21:59;18.90;99.90
18541;DHT22;9400;50.924;5.328;2022-10-17T10:24:27;19.00;99.90
18541;DHT22;9400;50.924;5.328;2022-10-17T10:26:57;19.00;99.90
18541;DHT22;9400;50.924;5.328;2022-10-17T10:29:28;19.00;99.90
18541;DHT22;9400;50.924;5.328;2022-10-17T10:32:07;19.00;99.90
18541;DHT22;9400;50.924;5.328;2022-10-17T10:34:36;19.00;99.90
18541;DHT22;9400;50.924;5.328;2022-10-17T10:37:19;19.00;99.90
18541;DHT22;9400;50.924;5.328;2022-10-17T10:39:49;19.00;99.90
18541;DHT22;9400;50.924;5.328;2022-10-17T10:42:21;19.00;99.90
18541;DHT22;9400;50.924;5.328;2022-10-17T10:44:50;19.00;99.90
18541;DHT22;9400;50.924;5.328;2022-10-17T10:47:21;19.10;99.90
18541;DHT22;9400;50.924;5.328;2022-10-17T10:50:07;19.10;99.90
18541;DHT22;9400;50.924;5.328;2022-10-17T10:52:42;19.10;99.90
18541;DHT22;9400;50.924;5.328;2022-10-17T10:55:20;19.20;99.90
18541;DHT22;9400;50.924;5.328;2022-10-17T10:57:51;19.20;99.90
18541;DHT22;9400;50.924;5.328;2022-10-17T11:00:23;19.30;99.90
18541;DHT22;9400;50.924;5.328;2022-10-17T11:02:59;19.30;99.90
18541;DHT22;9400;50.924;5.328;2022-10-17T11:05:39;19.30;99.90
18541;DHT22;9400;50.924;5.328;2022-10-17T11:08:18;19.30;99.90
18541;DHT22;9400;50.924;5.328;2022-10-17T11:11:02;19.30;99.90
18541;DHT22;9400;50.924;5.328;2022-10-17T11:13:33;19.30;99.90
18541;DHT22;9400;50.924;5.328;2022-10-17T11:16:31;19.40;99.90
18541;DHT22;9400;50.924;5.328;2022-10-17T11:19:08;19.40;99.90
18541;DHT22;9400;50.924;5.328;2022-10-17T11:21:44;19.50;99.90
18541;DHT22;9400;50.924;5.328;2022-10-17T11:24:20;19.50;99.90
18541;DHT22;9400;50.924;5.328;2022-10-17T11:26:54;19.50;99.90
18541;DHT22;9400;50.924;5.328;2022-10-17T11:29:27;19.60;99.90
18541;DHT22;9400;50.924;5.328;2022-10-17T11:31:58;19.70;99.90
18541;DHT22;9400;50.924;5.328;2022-10-17T11:34:30;19.80;99.90
18541;DHT22;9400;50.924;5.328;2022-10-17T11:37:01;19.80;99.90
18541;DHT22;9400;50.924;5.328;2022-10-17T11:39:39;19.80;99.90
18541;DHT22;9400;50.924;5.328;2022-10-17T11:42:13;19.80;99.90
18541;DHT22;9400;50.924;5.328;2022-10-17T11:44:42;19.80;99.90
18541;DHT22;9400;50.924;5.328;2022-10-17T11:47:25;19.80;99.90
18541;DHT22;9400;50.924;5.328;2022-10-17T11:49:59;19.80;99.90
18541;DHT22;9400;50.924;5.328;2022-10-17T11:52:36;19.70;99.90
18541;DHT22;9400;50.924;5.328;2022-10-17T11:55:11;19.70;99.90
18541;DHT22;9400;50.924;5.328;2022-10-17T12:00:37;19.80;99.90
18541;DHT22;9400;50.924;5.328;2022-10-17T12:03:24;19.70;99.90
18541;DHT22;9400;50.924;5.328;2022-10-17T12:05:58;19.70;99.90
18541;DHT22;9400;50.924;5.328;2022-10-17T12:08:32;19.70;99.90
18541;DHT22;9400;50.924;5.328;2022-10-17T12:11:09;19.70;99.90
18541;DHT22;9400;50.924;5.328;2022-10-17T12:13:48;19.70;99.90
18541;DHT22;9400;50.924;5.328;2022-10-17T12:16:47;19.70;99.90
18541;DHT22;9400;50.924;5.328;2022-10-17T12:24:58;19.60;99.90
18541;DHT22;9400;50.924;5.328;2022-10-17T12:27:37;19.60;99.90
18541;DHT22;9400;50.924;5.328;2022-10-17T12:30:24;19.50;99.90
18541;DHT22;9400;50.924;5.328;2022-10-17T12:33:04;19.50;99.90
18541;DHT22;9400;50.924;5.328;2022-10-17T12:35:34;19.40;99.90
18541;DHT22;9400;50.924;5.328;2022-10-17T12:38:24;19.40;99.90
18541;DHT22;9400;50.924;5.328;2022-10-17T12:40:55;19.40;99.90
18541;DHT22;9400;50.924;5.328;2022-10-17T12:46:45;19.30;99.90
18541;DHT22;9400;50.924;5.328;2022-10-17T12:49:22;19.30;99.90
18541;DHT22;9400;50.924;5.328;2022-10-17T12:52:22;19.40;99.90
18541;DHT22;9400;50.924;5.328;2022-10-17T12:54:56;19.40;99.90
18541;DHT22;9400;50.924;5.328;2022-10-17T12:57:31;19.40;99.90
18541;DHT22;9400;50.924;5.328;2022-10-17T13:00:03;19.30;99.90
18541;DHT22;9400;50.924;5.328;2022-10-17T13:02:33;19.30;99.90
18541;DHT22;9400;50.924;5.328;2022-10-17T13:05:06;19.30;99.90
18541;DHT22;9400;50.924;5.328;2022-10-17T13:07:35;19.40;99.90
18541;DHT22;9400;50.924;5.328;2022-10-17T13:10:04;19.40;99.90
18541;DHT22;9400;50.924;5.328;2022-10-17T13:12:36;19.40;99.90
18541;DHT22;9400;50.924;5.328;2022-10-17T13:15:10;19.40;99.90
18541;DHT22;9400;50.924;5.328;2022-10-17T13:17:40;19.30;99.90
18541;DHT22;9400;50.924;5.328;2022-10-17T13:20:18;19.30;99.90
18541;DHT22;9400;50.924;5.328;2022-10-17T13:22:48;19.30;99.90
18541;DHT22;9400;50.924;5.328;2022-10-17T13:25:17;19.20;99.90
18541;DHT22;9400;50.924;5.328;2022-10-17T13:27:45;19.20;99.90
18541;DHT22;9400;50.924;5.328;2022-10-17T13:30:25;19.20;99.90
18541;DHT22;9400;50.924;5.328;2022-10-17T13:32:55;19.20;99.90
18541;DHT22;9400;50.924;5.328;2022-10-17T13:35:26;19.30;99.90
18541;DHT22;9400;50.924;5.328;2022-10-17T13:37:55;19.30;99.90
18541;DHT22;9400;50.924;5.328;2022-10-17T13:40:24;19.30;99.90
18541;DHT22;9400;50.924;5.328;2022-10-17T13:42:55;19.30;99.90
18541;DHT22;9400;50.924;5.328;2022-10-17T13:45:28;19.20;99.90
18541;DHT22;9400;50.924;5.328;2022-10-17T13:48:01;19.20;99.90
18541;DHT22;9400;50.924;5.328;2022-10-17T13:50:33;19.20;99.90
18541;DHT22;9400;50.924;5.328;2022-10-17T13:53:17;19.20;99.90
18541;DHT22;9400;50.924;5.328;2022-10-17T13:55:54;19.20;99.90
18541;DHT22;9400;50.924;5.328;2022-10-17T13:58:22;19.10;99.90
18541;DHT22;9400;50.924;5.328;2022-10-17T14:00:52;19.10;99.90
18541;DHT22;9400;50.924;5.328;2022-10-17T14:03:22;19.10;99.90
18541;DHT22;9400;50.924;5.328;2022-10-17T14:06:11;19.10;99.90
18541;DHT22;9400;50.924;5.328;2022-10-17T14:08:51;19.10;99.90
18541;DHT22;9400;50.924;5.328;2022-10-17T14:11:28;19.10;99.90
18541;DHT22;9400;50.924;5.328;2022-10-17T14:13:57;19.00;99.90
18541;DHT22;9400;50.924;5.328;2022-10-17T14:16:31;18.90;99.90
18541;DHT22;9400;50.924;5.328;2022-10-17T14:19:02;18.80;99.90
18541;DHT22;9400;50.924;5.328;2022-10-17T14:21:30;18.80;99.90
18541;DHT22;9400;50.924;5.328;2022-10-17T14:24:29;18.90;99.90
18541;DHT22;9400;50.924;5.328;2022-10-17T14:26:58;18.90;99.90
18541;DHT22;9400;50.924;5.328;2022-10-17T14:29:27;18.90;99.90
18541;DHT22;9400;50.924;5.328;2022-10-17T14:31:59;18.80;99.90
18541;DHT22;9400;50.924;5.328;2022-10-17T14:34:33;18.80;99.90
18541;DHT22;9400;50.924;5.328;2022-10-17T14:37:07;18.80;99.90
18541;DHT22;9400;50.924;5.328;2022-10-17T14:39:35;18.70;99.90
18541;DHT22;9400;50.924;5.328;2022-10-17T14:42:14;18.70;99.90
18541;DHT22;9400;50.924;5.328;2022-10-17T14:44:47;18.70;99.90
18541;DHT22;9400;50.924;5.328;2022-10-17T14:47:19;18.60;99.90
18541;DHT22;9400;50.924;5.328;2022-10-17T14:49:50;18.60;99.90
18541;DHT22;9400;50.924;5.328;2022-10-17T14:52:32;18.60;99.90
18541;DHT22;9400;50.924;5.328;2022-10-17T14:55:19;18.70;99.90
18541;DHT22;9400;50.924;5.328;2022-10-17T14:57:48;18.70;99.90
18541;DHT22;9400;50.924;5.328;2022-10-17T15:00:17;18.70;99.90
18541;DHT22;9400;50.924;5.328;2022-10-17T15:02:45;18.70;99.90
18541;DHT22;9400;50.924;5.328;2022-10-17T15:05:15;18.70;99.90
18541;DHT22;9400;50.924;5.328;2022-10-17T15:07:43;18.70;99.90
18541;DHT22;9400;50.924;5.328;2022-10-17T15:10:27;18.70;99.90
18541;DHT22;9400;50.924;5.328;2022-10-17T15:12:57;18.70;99.90
18541;DHT22;9400;50.924;5.328;2022-10-17T15:15:27;18.80;99.90
18541;DHT22;9400;50.924;5.328;2022-10-17T15:17:55;18.70;99.90
18541;DHT22;9400;50.924;5.328;2022-10-17T15:20:25;18.80;99.90
18541;DHT22;9400;50.924;5.328;2022-10-17T15:22:56;18.70;99.90
18541;DHT22;9400;50.924;5.328;2022-10-17T15:25:24;18.60;99.90
18541;DHT22;9400;50.924;5.328;2022-10-17T15:27:53;18.70;99.90
18541;DHT22;9400;50.924;5.328;2022-10-17T15:30:24;18.60;99.90
18541;DHT22;9400;50.924;5.328;2022-10-17T15:32:52;18.70;99.90
18541;DHT22;9400;50.924;5.328;2022-10-17T15:35:21;18.60;99.90
18541;DHT22;9400;50.924;5.328;2022-10-17T15:37:50;18.60;99.90
18541;DHT22;9400;50.924;5.328;2022-10-17T15:40:21;18.70;99.90
18541;DHT22;9400;50.924;5.328;2022-10-17T15:42:50;18.60;99.90
18541;DHT22;9400;50.924;5.328;2022-10-17T15:45:19;18.60;99.90
18541;DHT22;9400;50.924;5.328;2022-10-17T15:47:52;18.50;99.90
18541;DHT22;9400;50.924;5.328;2022-10-17T15:50:21;18.50;99.90
18541;DHT22;9400;50.924;5.328;2022-10-17T15:52:51;18.40;99.90
18541;DHT22;9400;50.924;5.328;2022-10-17T15:55:19;18.50;99.90
18541;DHT22;9400;50.924;5.328;2022-10-17T15:57:48;18.40;99.90
18541;DHT22;9400;50.924;5.328;2022-10-17T16:00:19;18.40;99.90
18541;DHT22;9400;50.924;5.328;2022-10-17T16:02:47;18.30;99.90
18541;DHT22;9400;50.924;5.328;2022-10-17T16:05:16;18.30;99.90
18541;DHT22;9400;50.924;5.328;2022-10-17T16:07:44;18.30;99.90
18541;DHT22;9400;50.924;5.328;2022-10-17T16:10:15;18.30;99.90
18541;DHT22;9400;50.924;5.328;2022-10-17T16:12:43;18.20;99.90
18541;DHT22;9400;50.924;5.328;2022-10-17T16:15:14;18.30;99.90
18541;DHT22;9400;50.924;5.328;2022-10-17T16:17:42;18.30;99.90
18541;DHT22;9400;50.924;5.328;2022-10-17T16:20:11;18.20;99.90
18541;DHT22;9400;50.924;5.328;2022-10-17T16:22:39;18.20;99.90
18541;DHT22;9400;50.924;5.328;2022-10-17T16:25:18;18.20;99.90